Time,TemperatureF,DewpointF,PressureIn,WindDirection,WindDirectionDegrees,WindSpeedMPH,WindSpeedGustMPH,Humidity,HourlyPrecipIn,Conditions,Clouds,dailyrainin,SoftwareType,DateUTC
2013-01-29 00:06:00,18.9,15.7,30.10,NNE,25,0.0,0.0,87,0.03,,,0.00,VWS V14.01,2013-01-29 05:06:00,
2013-01-29 00:10:00,18.7,15.5,30.10,NNE,25,0.0,0.0,87,0.02,,,0.00,VWS V14.01,2013-01-29 05:10:00,
2013-01-29 00:15:00,18.7,15.5,30.10,NNE,24,0.0,0.0,87,0.03,,,0.01,VWS V14.01,2013-01-29 05:15:00,
2013-01-29 00:20:00,18.7,15.5,30.10,NNE,25,0.0,0.0,87,0.03,,,0.01,VWS V14.01,2013-01-29 05:20:00,
2013-01-29 00:25:00,18.7,15.5,30.10,NNE,25,0.0,0.0,87,0.02,,,0.01,VWS V14.01,2013-01-29 05:25:00,
2013-01-29 00:31:00,18.9,15.7,30.10,NNE,25,0.0,0.0,87,0.02,,,0.01,VWS V14.01,2013-01-29 05:31:00,
2013-01-29 00:36:00,18.7,15.5,30.10,NNE,25,0.0,0.0,87,0.02,,,0.01,VWS V14.01,2013-01-29 05:36:00,
2013-01-29 00:41:00,18.7,15.5,30.10,NNE,25,0.0,0.0,87,0.02,,,0.01,VWS V14.01,2013-01-29 05:41:00,
2013-01-29 00:50:00,18.7,15.5,30.10,NNE,25,0.0,0.0,87,0.02,,,0.01,VWS V14.01,2013-01-29 05:50:00,
2013-01-29 01:01:00,18.9,15.7,30.10,NNE,25,0.0,0.0,87,0.01,,,0.01,VWS V14.01,2013-01-29 06:01:00,
2013-01-29 01:06:00,18.9,15.7,30.10,NNE,25,0.0,0.0,87,0.01,,,0.01,VWS V14.01,2013-01-29 06:06:00,
2013-01-29 01:15:00,18.9,15.7,30.10,NNE,25,0.0,0.0,87,0.01,,,0.01,VWS V14.01,2013-01-29 06:15:00,
2013-01-29 01:25:00,19.0,15.8,30.10,NNE,25,0.0,1.5,87,0.00,,,0.01,VWS V14.01,2013-01-29 06:25:00,
2013-01-29 01:31:00,19.0,15.8,30.10,NNE,25,0.0,1.5,87,0.00,,,0.01,VWS V14.01,2013-01-29 06:31:00,
2013-01-29 01:40:00,19.0,15.8,30.10,NNE,25,0.0,1.5,87,0.00,,,0.01,VWS V14.01,2013-01-29 06:40:00,
2013-01-29 01:45:00,19.0,15.8,30.10,NNE,25,0.0,0.0,87,0.00,,,0.01,VWS V14.01,2013-01-29 06:45:00,
2013-01-29 01:55:00,19.2,16.0,30.11,NNE,25,0.0,1.5,87,0.00,,,0.01,VWS V14.01,2013-01-29 06:55:00,
2013-01-29 02:00:00,19.2,16.0,30.11,NNE,25,0.0,1.5,87,0.00,,,0.01,VWS V14.01,2013-01-29 07:00:00,
2013-01-29 02:06:00,19.2,16.0,30.10,NNE,25,0.0,1.5,87,0.00,,,0.01,VWS V14.01,2013-01-29 07:06:00,
2013-01-29 02:11:00,19.2,16.0,30.10,NNE,25,0.0,1.5,87,0.00,,,0.01,VWS V14.01,2013-01-29 07:11:00,
2013-01-29 02:20:00,19.2,16.0,30.11,NNE,25,0.0,0.0,87,0.00,,,0.01,VWS V14.01,2013-01-29 07:20:00,
2013-01-29 02:25:00,19.2,16.0,30.11,NNE,25,0.0,0.0,87,0.00,,,0.01,VWS V14.01,2013-01-29 07:25:00,
2013-01-29 02:30:00,19.3,16.1,30.11,NNE,25,0.0,0.0,87,0.00,,,0.01,VWS V14.01,2013-01-29 07:30:00,
2013-01-29 02:40:00,19.2,16.0,30.12,NNE,25,0.0,0.0,87,0.00,,,0.01,VWS V14.01,2013-01-29 07:40:00,
2013-01-29 02:50:00,19.2,16.0,30.12,NNE,25,0.0,0.0,87,0.00,,,0.01,VWS V14.01,2013-01-29 07:50:00,
2013-01-29 03:00:00,19.2,16.0,30.12,NNE,25,0.0,0.0,87,0.00,,,0.01,VWS V14.01,2013-01-29 08:00:00,
2013-01-29 03:05:00,19.2,16.0,30.12,NNE,25,0.0,0.0,87,0.00,,,0.01,VWS V14.01,2013-01-29 08:05:00,
2013-01-29 03:16:00,18.9,15.4,30.12,NNE,24,0.0,0.0,86,0.00,,,0.01,VWS V14.01,2013-01-29 08:16:00,
2013-01-29 03:25:00,18.7,15.2,30.12,NNE,25,0.0,0.0,86,0.00,,,0.01,VWS V14.01,2013-01-29 08:25:00,
2013-01-29 03:35:00,18.7,15.2,30.12,NNE,25,0.0,0.0,86,0.00,,,0.01,VWS V14.01,2013-01-29 08:35:00,
2013-01-29 03:40:00,18.7,15.2,30.12,NNE,25,0.0,0.0,86,0.00,,,0.01,VWS V14.01,2013-01-29 08:40:00,
2013-01-29 03:45:00,18.5,15.0,30.12,NNE,25,0.0,0.0,86,0.00,,,0.01,VWS V14.01,2013-01-29 08:45:00,
2013-01-29 03:50:00,18.5,15.0,30.12,NNE,25,0.0,0.0,86,0.00,,,0.01,VWS V14.01,2013-01-29 08:50:00,
2013-01-29 03:55:00,18.2,14.7,30.12,NNE,25,0.0,0.0,86,0.00,,,0.01,VWS V14.01,2013-01-29 08:55:00,
2013-01-29 04:05:00,17.6,14.1,30.13,NNE,25,0.0,0.0,86,0.00,,,0.01,VWS V14.01,2013-01-29 09:05:00,
2013-01-29 04:15:00,17.0,13.5,30.13,NNE,25,0.0,0.0,86,0.00,,,0.01,VWS V14.01,2013-01-29 09:15:00,
2013-01-29 04:20:00,16.8,13.4,30.14,NNE,25,0.0,0.0,86,0.00,,,0.01,VWS V14.01,2013-01-29 09:20:00,
2013-01-29 04:25:00,16.7,13.2,30.14,NNE,25,0.0,0.0,86,0.00,,,0.01,VWS V14.01,2013-01-29 09:25:00,
2013-01-29 04:30:00,16.3,12.9,30.14,NNE,25,0.0,0.0,86,0.00,,,0.01,VWS V14.01,2013-01-29 09:30:00,
2013-01-29 04:35:00,16.2,12.8,30.13,NNE,25,0.0,0.0,86,0.00,,,0.01,VWS V14.01,2013-01-29 09:35:00,
2013-01-29 04:41:00,15.9,12.5,30.13,NNE,25,0.0,0.0,86,0.00,,,0.01,VWS V14.01,2013-01-29 09:41:00,
2013-01-29 04:46:00,15.4,11.7,30.13,NNE,25,0.0,0.0,85,0.00,,,0.01,VWS V14.01,2013-01-29 09:46:00,
2013-01-29 04:51:00,14.6,10.9,30.12,NNE,25,0.0,1.5,85,0.00,,,0.01,VWS V14.01,2013-01-29 09:51:00,
2013-01-29 04:56:00,14.2,10.8,30.12,NNE,25,0.0,1.5,86,0.00,,,0.01,VWS V14.01,2013-01-29 09:56:00,
2013-01-29 05:01:00,14.1,10.7,30.12,NNE,25,0.0,1.5,86,0.00,,,0.01,VWS V14.01,2013-01-29 10:01:00,
2013-01-29 05:10:00,13.8,10.4,30.14,NNE,25,0.0,0.0,86,0.00,,,0.01,VWS V14.01,2013-01-29 10:10:00,
2013-01-29 05:15:00,13.6,10.2,30.14,NNE,25,0.0,0.0,86,0.00,,,0.01,VWS V14.01,2013-01-29 10:15:00,
2013-01-29 05:20:00,13.4,10.0,30.14,NNE,25,0.0,0.0,86,0.00,,,0.01,VWS V14.01,2013-01-29 10:20:00,
2013-01-29 05:25:00,13.1,9.4,30.14,NNE,25,0.0,0.0,85,0.00,,,0.01,VWS V14.01,2013-01-29 10:25:00,
2013-01-29 05:30:00,12.8,9.1,30.14,NNE,25,0.0,0.0,85,0.00,,,0.01,VWS V14.01,2013-01-29 10:30:00,
2013-01-29 05:40:00,12.5,8.9,30.14,NNE,25,0.0,0.0,85,0.00,,,0.01,VWS V14.01,2013-01-29 10:40:00,
2013-01-29 05:46:00,12.3,8.9,30.14,NNE,25,0.0,0.0,86,0.00,,,0.01,VWS V14.01,2013-01-29 10:46:00,
2013-01-29 05:51:00,12.3,8.7,30.15,NNE,25,0.0,0.0,85,0.00,,,0.01,VWS V14.01,2013-01-29 10:51:00,
2013-01-29 05:56:00,12.3,8.9,30.15,NNE,25,0.0,0.0,86,0.00,,,0.01,VWS V14.01,2013-01-29 10:56:00,
2013-01-29 06:01:00,12.3,8.9,30.15,NNE,25,0.0,0.0,86,0.00,,,0.01,VWS V14.01,2013-01-29 11:01:00,
2013-01-29 06:10:00,10.9,6.2,30.16,NNE,25,0.0,0.0,81,0.00,,,0.01,VWS V14.01,2013-01-29 11:10:00,
2013-01-29 06:20:00,9.2,4.8,30.17,NNE,25,0.0,0.0,82,0.00,,,0.01,VWS V14.01,2013-01-29 11:20:00,
2013-01-29 06:25:00,9.4,5.3,30.17,NNE,25,0.0,0.0,83,0.00,,,0.01,VWS V14.01,2013-01-29 11:25:00,
2013-01-29 06:30:00,9.5,5.9,30.17,NNE,25,0.0,0.0,85,0.00,,,0.01,VWS V14.01,2013-01-29 11:30:00,
2013-01-29 06:35:00,9.7,6.1,30.17,NNE,25,0.0,0.0,85,0.00,,,0.01,VWS V14.01,2013-01-29 11:35:00,
2013-01-29 06:40:00,9.9,6.3,30.17,NNE,25,0.0,0.0,85,0.00,,,0.01,VWS V14.01,2013-01-29 11:40:00,
2013-01-29 06:45:00,9.7,6.1,30.17,NNE,25,0.0,0.0,85,0.00,,,0.01,VWS V14.01,2013-01-29 11:45:00,
2013-01-29 06:50:00,9.7,6.1,30.17,NNE,24,0.0,0.0,85,0.00,,,0.01,VWS V14.01,2013-01-29 11:50:00,
2013-01-29 06:55:00,9.7,6.1,30.17,NNE,25,0.0,0.0,85,0.00,,,0.01,VWS V14.01,2013-01-29 11:55:00,
2013-01-29 07:05:00,9.2,5.1,30.17,NNE,25,0.0,0.0,83,0.00,,,0.01,VWS V14.01,2013-01-29 12:05:00,
2013-01-29 07:10:00,8.3,4.0,30.17,NNE,25,0.0,0.0,82,0.00,,,0.01,VWS V14.01,2013-01-29 12:10:00,
2013-01-29 07:15:00,7.8,3.5,30.17,NNE,25,0.0,0.0,82,0.00,,,0.01,VWS V14.01,2013-01-29 12:15:00,
2013-01-29 07:20:00,7.8,4.0,30.17,NNE,24,0.0,0.0,84,0.00,,,0.01,VWS V14.01,2013-01-29 12:20:00,
2013-01-29 07:26:00,8.0,4.2,30.17,NNE,26,0.0,0.0,84,0.00,,,0.01,VWS V14.01,2013-01-29 12:26:00,
2013-01-29 07:31:00,8.3,4.7,30.17,NNE,25,0.0,0.0,85,0.00,,,0.01,VWS V14.01,2013-01-29 12:31:00,
2013-01-29 07:40:00,8.9,5.3,30.18,NNE,25,0.0,0.0,85,0.00,,,0.01,VWS V14.01,2013-01-29 12:40:00,
2013-01-29 07:45:00,9.0,5.7,30.18,NNE,26,0.0,0.0,86,0.00,,,0.01,VWS V14.01,2013-01-29 12:45:00,
2013-01-29 07:50:00,9.2,5.6,30.20,NNE,25,0.0,0.0,85,0.00,,,0.01,VWS V14.01,2013-01-29 12:50:00,
2013-01-29 08:00:00,9.7,6.4,30.20,NNE,25,0.0,0.0,86,0.00,,,0.01,VWS V14.01,2013-01-29 13:00:00,
2013-01-29 08:11:00,10.4,7.1,30.20,NNE,25,0.0,0.0,86,0.00,,,0.01,VWS V14.01,2013-01-29 13:11:00,
2013-01-29 08:16:00,10.9,7.5,30.20,NNE,25,0.0,0.0,86,0.00,,,0.01,VWS V14.01,2013-01-29 13:16:00,
2013-01-29 08:25:00,10.1,6.0,30.21,NNE,24,0.0,0.0,83,0.00,,,0.01,VWS V14.01,2013-01-29 13:25:00,
2013-01-29 08:30:00,9.5,4.9,30.21,NNW,336,0.0,0.0,81,0.00,,,0.01,VWS V14.01,2013-01-29 13:30:00,
2013-01-29 08:35:00,9.2,4.8,30.22,NNW,337,0.0,0.0,82,0.00,,,0.01,VWS V14.01,2013-01-29 13:35:00,
2013-01-29 08:40:00,9.2,5.1,30.22,NNW,336,0.0,0.0,83,0.00,,,0.01,VWS V14.01,2013-01-29 13:40:00,
2013-01-29 08:50:00,10.6,7.2,30.23,NNW,336,0.0,3.0,86,0.00,,,0.01,VWS V14.01,2013-01-29 13:50:00,
2013-01-29 08:55:00,11.3,7.9,30.23,NNW,337,0.0,3.0,86,0.00,,,0.01,VWS V14.01,2013-01-29 13:55:00,
2013-01-29 09:00:00,11.9,8.5,30.23,NNW,336,0.0,3.0,86,0.00,,,0.01,VWS V14.01,2013-01-29 14:00:00,
2013-01-29 09:05:00,13.1,10.0,30.23,NNW,336,0.0,3.0,87,0.00,,,0.01,VWS V14.01,2013-01-29 14:05:00,
2013-01-29 09:15:00,13.3,9.6,30.23,ENE,77,3.0,6.0,85,0.00,,,0.01,VWS V14.01,2013-01-29 14:15:00,
2013-01-29 09:20:00,13.0,9.4,30.23,ENE,77,0.0,6.0,85,0.00,,,0.01,VWS V14.01,2013-01-29 14:20:00,
2013-01-29 09:25:00,13.0,9.4,30.23,ENE,77,0.0,6.0,85,0.00,,,0.01,VWS V14.01,2013-01-29 14:25:00,
2013-01-29 09:35:00,13.0,9.4,30.24,WSW,240,0.0,6.0,85,0.00,,,0.01,VWS V14.01,2013-01-29 14:35:00,
2013-01-29 09:45:00,14.4,11.2,30.24,WSW,241,0.0,4.5,87,0.00,,,0.01,VWS V14.01,2013-01-29 14:45:00,
2013-01-29 09:55:00,16.2,13.3,30.24,WSW,241,0.0,3.0,88,0.00,,,0.01,VWS V14.01,2013-01-29 14:55:00,
2013-01-29 10:01:00,16.5,13.1,30.24,SE,140,0.0,3.0,86,0.00,,,0.01,VWS V14.01,2013-01-29 15:01:00,
2013-01-29 10:06:00,15.5,11.3,30.23,SE,141,0.0,3.0,83,0.00,,,0.01,VWS V14.01,2013-01-29 15:06:00,
2013-01-29 10:15:00,16.0,12.6,30.23,SE,141,0.0,1.5,86,0.00,,,0.01,VWS V14.01,2013-01-29 15:15:00,
2013-01-29 10:20:00,16.5,13.1,30.23,SE,140,0.0,1.5,86,0.00,,,0.01,VWS V14.01,2013-01-29 15:20:00,
2013-01-29 10:25:00,17.1,13.6,30.23,SE,141,0.0,1.5,86,0.00,,,0.01,VWS V14.01,2013-01-29 15:25:00,
2013-01-29 10:30:00,17.8,14.3,30.23,SSE,162,0.0,3.0,86,0.00,,,0.01,VWS V14.01,2013-01-29 15:30:00,
2013-01-29 10:40:00,18.2,14.2,30.24,South,169,3.0,4.5,84,0.00,,,0.01,VWS V14.01,2013-01-29 15:40:00,
2013-01-29 10:50:00,19.0,15.0,30.24,SE,146,4.5,6.0,84,0.00,,,0.01,VWS V14.01,2013-01-29 15:50:00,
2013-01-29 10:55:00,19.5,15.2,30.24,SE,146,3.0,6.0,83,0.00,,,0.01,VWS V14.01,2013-01-29 15:55:00,
2013-01-29 11:00:00,20.0,15.7,30.24,SE,145,4.5,6.0,83,0.00,,,0.01,VWS V14.01,2013-01-29 16:00:00,
2013-01-29 11:10:00,20.6,16.0,30.24,SSE,147,4.5,6.0,82,0.00,,,0.01,VWS V14.01,2013-01-29 16:10:00,
2013-01-29 11:16:00,21.1,16.8,30.24,SSE,147,4.5,6.0,83,0.00,,,0.01,VWS V14.01,2013-01-29 16:16:00,
2013-01-29 11:21:00,21.5,16.9,30.24,SE,146,3.0,6.0,82,0.00,,,0.01,VWS V14.01,2013-01-29 16:21:00,
2013-01-29 11:30:00,21.9,17.3,30.24,SSE,147,0.0,6.0,82,0.00,,,0.01,VWS V14.01,2013-01-29 16:30:00,
2013-01-29 11:40:00,22.0,17.1,30.25,SSE,147,0.0,6.0,81,0.00,,,0.01,VWS V14.01,2013-01-29 16:40:00,
2013-01-29 11:50:00,21.9,16.7,30.24,SE,146,0.0,1.5,80,0.00,,,0.01,VWS V14.01,2013-01-29 16:50:00,
2013-01-29 11:55:00,21.7,17.1,30.24,ESE,106,3.0,4.5,82,0.00,,,0.01,VWS V14.01,2013-01-29 16:55:00,
2013-01-29 12:01:00,22.5,17.9,30.24,East,96,0.0,4.5,82,0.00,,,0.01,VWS V14.01,2013-01-29 17:01:00,
2013-01-29 12:06:00,23.4,18.1,30.22,East,97,3.0,4.5,80,0.00,,,0.01,VWS V14.01,2013-01-29 17:06:00,
2013-01-29 12:11:00,24.1,18.5,30.22,East,96,0.0,4.5,79,0.00,,,0.01,VWS V14.01,2013-01-29 17:11:00,
2013-01-29 12:16:00,24.6,18.7,30.22,East,96,0.0,4.5,78,0.00,,,0.01,VWS V14.01,2013-01-29 17:16:00,
2013-01-29 12:25:00,25.6,19.7,30.22,SE,132,0.0,3.0,78,0.00,,,0.01,VWS V14.01,2013-01-29 17:25:00,
2013-01-29 12:35:00,26.0,19.8,30.21,SSW,200,0.0,3.0,77,0.00,,,0.01,VWS V14.01,2013-01-29 17:35:00,
2013-01-29 12:40:00,26.0,20.1,30.21,SSW,200,1.5,3.0,78,0.00,,,0.01,VWS V14.01,2013-01-29 17:40:00,
2013-01-29 12:45:00,26.2,20.3,30.21,SSW,200,0.0,3.0,78,0.00,,,0.01,VWS V14.01,2013-01-29 17:45:00,
2013-01-29 12:50:00,26.2,20.3,30.21,SSW,200,1.5,3.0,78,0.00,,,0.01,VWS V14.01,2013-01-29 17:50:00,
2013-01-29 13:00:00,26.3,20.4,30.21,South,169,0.0,4.5,78,0.00,,,0.01,VWS V14.01,2013-01-29 18:00:00,
2013-01-29 13:05:00,26.3,20.7,30.20,South,169,4.5,4.5,79,0.00,,,0.01,VWS V14.01,2013-01-29 18:05:00,
2013-01-29 13:11:00,26.3,20.4,30.20,SSE,160,7.5,7.5,78,0.00,,,0.01,VWS V14.01,2013-01-29 18:11:00,
2013-01-29 13:16:00,26.0,20.1,30.20,SSE,160,9.0,10.5,78,0.00,,,0.01,VWS V14.01,2013-01-29 18:16:00,
2013-01-29 13:25:00,25.4,20.1,30.19,SSE,150,9.0,10.5,80,0.00,,,0.01,VWS V14.01,2013-01-29 18:25:00,
2013-01-29 13:35:00,25.4,20.1,30.18,SSE,153,13.5,16.5,80,0.00,,,0.01,VWS V14.01,2013-01-29 18:35:00,
2013-01-29 13:46:00,25.3,20.0,30.18,South,189,13.5,16.5,80,0.00,,,0.01,VWS V14.01,2013-01-29 18:46:00,
2013-01-29 13:55:00,26.2,20.0,30.18,SSW,208,6.0,16.5,77,0.00,,,0.01,VWS V14.01,2013-01-29 18:55:00,
2013-01-29 14:06:00,27.2,21.0,30.19,SW,214,7.5,15.0,77,0.00,,,0.01,VWS V14.01,2013-01-29 19:06:00,
2013-01-29 14:15:00,27.8,20.9,30.19,South,189,10.5,13.5,75,0.00,,,0.01,VWS V14.01,2013-01-29 19:15:00,
2013-01-29 14:21:00,27.4,20.5,30.18,SSE,151,9.0,13.5,75,0.00,,,0.01,VWS V14.01,2013-01-29 19:21:00,
2013-01-29 14:30:00,26.9,20.7,30.18,SSE,151,6.0,13.5,77,0.00,,,0.01,VWS V14.01,2013-01-29 19:30:00,
2013-01-29 14:35:00,26.9,20.4,30.19,SSE,151,4.5,13.5,76,0.00,,,0.01,VWS V14.01,2013-01-29 19:35:00,
2013-01-29 14:40:00,26.9,20.7,30.19,SE,146,3.0,10.5,77,0.00,,,0.01,VWS V14.01,2013-01-29 19:40:00,
2013-01-29 14:51:00,26.9,20.7,30.19,SE,146,4.5,7.5,77,0.00,,,0.01,VWS V14.01,2013-01-29 19:51:00,
2013-01-29 15:00:00,27.1,20.2,30.19,SE,146,3.0,6.0,75,0.00,,,0.01,VWS V14.01,2013-01-29 20:00:00,
2013-01-29 15:06:00,26.8,19.6,30.19,ESE,106,3.0,6.0,74,0.00,,,0.01,VWS V14.01,2013-01-29 20:06:00,
2013-01-29 15:15:00,27.1,19.9,30.19,East,100,1.5,6.0,74,0.00,,,0.01,VWS V14.01,2013-01-29 20:15:00,
2013-01-29 15:21:00,27.2,20.0,30.19,East,100,3.0,4.5,74,0.00,,,0.01,VWS V14.01,2013-01-29 20:21:00,
2013-01-29 15:30:00,27.7,20.8,30.19,East,101,0.0,4.5,75,0.00,,,0.01,VWS V14.01,2013-01-29 20:30:00,
2013-01-29 15:36:00,27.8,20.6,30.20,East,100,0.0,4.5,74,0.00,,,0.01,VWS V14.01,2013-01-29 20:36:00,
2013-01-29 15:45:00,27.8,20.6,30.20,East,101,0.0,4.5,74,0.00,,,0.01,VWS V14.01,2013-01-29 20:45:00,
2013-01-29 15:51:00,27.5,20.9,30.20,East,100,0.0,1.5,76,0.00,,,0.01,VWS V14.01,2013-01-29 20:51:00,
2013-01-29 16:00:00,27.1,20.5,30.20,East,101,0.0,0.0,76,0.00,,,0.01,VWS V14.01,2013-01-29 21:00:00,
2013-01-29 16:06:00,26.8,20.6,30.19,East,101,0.0,0.0,77,0.00,,,0.01,VWS V14.01,2013-01-29 21:06:00,
2013-01-29 16:11:00,26.6,20.7,30.19,East,101,0.0,0.0,78,0.00,,,0.01,VWS V14.01,2013-01-29 21:11:00,
2013-01-29 16:16:00,26.6,21.0,30.19,East,101,0.0,0.0,79,0.00,,,0.01,VWS V14.01,2013-01-29 21:16:00,
2013-01-29 16:26:00,26.6,21.3,30.21,East,100,0.0,0.0,80,0.00,,,0.01,VWS V14.01,2013-01-29 21:26:00,
2013-01-29 16:35:00,26.5,21.2,30.21,East,101,0.0,0.0,80,0.00,,,0.01,VWS V14.01,2013-01-29 21:35:00,
2013-01-29 16:41:00,26.5,21.2,30.21,East,101,0.0,0.0,80,0.00,,,0.01,VWS V14.01,2013-01-29 21:41:00,
2013-01-29 16:50:00,26.3,20.7,30.20,East,101,0.0,0.0,79,0.00,,,0.01,VWS V14.01,2013-01-29 21:50:00,
2013-01-29 16:56:00,26.2,20.0,30.20,East,101,0.0,0.0,77,0.00,,,0.01,VWS V14.01,2013-01-29 21:56:00,
2013-01-29 17:05:00,25.4,19.8,30.21,East,100,0.0,0.0,79,0.00,,,0.01,VWS V14.01,2013-01-29 22:05:00,
2013-01-29 17:11:00,25.3,20.0,30.21,East,100,0.0,0.0,80,0.00,,,0.01,VWS V14.01,2013-01-29 22:11:00,
2013-01-29 17:21:00,25.3,20.6,30.23,East,100,0.0,0.0,82,0.00,,,0.01,VWS V14.01,2013-01-29 22:21:00,
2013-01-29 17:30:00,25.4,21.2,30.23,East,101,0.0,0.0,84,0.00,,,0.01,VWS V14.01,2013-01-29 22:30:00,
2013-01-29 17:36:00,25.6,21.5,30.23,East,100,0.0,0.0,84,0.00,,,0.01,VWS V14.01,2013-01-29 22:36:00,
2013-01-29 17:45:00,25.7,21.8,30.23,East,101,0.0,0.0,85,0.00,,,0.01,VWS V14.01,2013-01-29 22:45:00,
2013-01-29 17:51:00,25.9,22.0,30.23,East,101,0.0,0.0,85,0.00,,,0.01,VWS V14.01,2013-01-29 22:51:00,
2013-01-29 18:00:00,26.0,22.4,30.23,East,100,1.5,3.0,86,0.00,,,0.01,VWS V14.01,2013-01-29 23:00:00,
2013-01-29 18:06:00,26.2,22.6,30.22,East,101,0.0,3.0,86,0.00,,,0.01,VWS V14.01,2013-01-29 23:06:00,
2013-01-29 18:15:00,26.3,22.7,30.22,East,101,0.0,3.0,86,0.00,,,0.01,VWS V14.01,2013-01-29 23:15:00,
2013-01-29 18:21:00,26.5,22.9,30.23,East,101,0.0,3.0,86,0.00,,,0.01,VWS V14.01,2013-01-29 23:21:00,
2013-01-29 18:31:00,26.5,22.9,30.23,East,101,0.0,0.0,86,0.00,,,0.01,VWS V14.01,2013-01-29 23:31:00,
2013-01-29 18:40:00,26.5,22.9,30.23,East,100,0.0,0.0,86,0.00,,,0.01,VWS V14.01,2013-01-29 23:40:00,
2013-01-29 18:46:00,26.5,22.9,30.23,East,101,0.0,0.0,86,0.00,,,0.01,VWS V14.01,2013-01-29 23:46:00,
2013-01-29 18:55:00,26.8,23.5,30.23,East,101,0.0,0.0,87,0.00,,,0.01,VWS V14.01,2013-01-29 23:55:00,
2013-01-29 19:01:00,26.9,23.6,30.23,East,101,0.0,0.0,87,0.00,,,0.01,VWS V14.01,2013-01-30 00:01:00,
2013-01-29 19:10:00,27.1,24.0,30.23,East,100,3.0,3.0,88,0.00,,,0.01,VWS V14.01,2013-01-30 00:10:00,
2013-01-29 19:16:00,27.2,24.1,30.23,East,101,0.0,3.0,88,0.00,,,0.01,VWS V14.01,2013-01-30 00:16:00,
2013-01-29 19:25:00,27.4,24.3,30.21,East,101,0.0,3.0,88,0.00,,,0.01,VWS V14.01,2013-01-30 00:25:00,
2013-01-29 19:31:00,27.4,24.3,30.21,East,101,0.0,3.0,88,0.00,,,0.01,VWS V14.01,2013-01-30 00:31:00,
2013-01-29 19:40:00,27.4,24.3,30.22,East,101,0.0,0.0,88,0.00,,,0.01,VWS V14.01,2013-01-30 00:40:00,
2013-01-29 19:46:00,27.4,24.3,30.22,East,101,0.0,0.0,88,0.00,,,0.01,VWS V14.01,2013-01-30 00:46:00,
2013-01-29 19:55:00,27.2,24.4,30.21,East,101,0.0,0.0,89,0.00,,,0.01,VWS V14.01,2013-01-30 00:55:00,
2013-01-29 20:01:00,27.2,24.4,30.21,East,101,0.0,0.0,89,0.00,,,0.01,VWS V14.01,2013-01-30 01:01:00,
2013-01-29 20:10:00,27.2,24.4,30.22,East,100,0.0,0.0,89,0.00,,,0.01,VWS V14.01,2013-01-30 01:10:00,
2013-01-29 20:16:00,27.2,24.4,30.22,East,100,0.0,0.0,89,0.00,,,0.01,VWS V14.01,2013-01-30 01:16:00,
2013-01-29 20:25:00,27.4,24.6,30.22,East,101,0.0,0.0,89,0.00,,,0.01,VWS V14.01,2013-01-30 01:25:00,
2013-01-29 20:31:00,27.4,24.6,30.22,East,100,0.0,0.0,89,0.00,,,0.01,VWS V14.01,2013-01-30 01:31:00,
2013-01-29 20:40:00,27.4,24.6,30.21,East,100,0.0,0.0,89,0.00,,,0.01,VWS V14.01,2013-01-30 01:40:00,
2013-01-29 20:46:00,27.4,24.6,30.21,East,101,0.0,0.0,89,0.00,,,0.01,VWS V14.01,2013-01-30 01:46:00,
2013-01-29 20:55:00,27.4,24.6,30.21,East,101,0.0,0.0,89,0.00,,,0.01,VWS V14.01,2013-01-30 01:55:00,
2013-01-29 21:01:00,27.5,24.7,30.21,East,101,0.0,0.0,89,0.00,,,0.01,VWS V14.01,2013-01-30 02:01:00,
2013-01-29 21:06:00,27.7,25.2,30.21,East,101,0.0,0.0,90,0.00,,,0.01,VWS V14.01,2013-01-30 02:06:00,
2013-01-29 21:16:00,28.0,25.5,30.21,East,100,0.0,0.0,90,0.00,,,0.01,VWS V14.01,2013-01-30 02:16:00,
2013-01-29 21:25:00,28.1,25.5,30.22,East,101,0.0,0.0,90,0.00,,,0.01,VWS V14.01,2013-01-30 02:25:00,
2013-01-29 21:31:00,28.1,25.5,30.22,East,101,0.0,0.0,90,0.00,,,0.01,VWS V14.01,2013-01-30 02:31:00,
2013-01-29 21:40:00,28.3,25.8,30.22,East,100,0.0,0.0,90,0.00,,,0.01,VWS V14.01,2013-01-30 02:40:00,
2013-01-29 21:46:00,28.4,25.9,30.22,East,101,0.0,1.5,90,0.00,,,0.01,VWS V14.01,2013-01-30 02:46:00,
2013-01-29 21:55:00,28.5,26.2,30.22,East,101,0.0,1.5,91,0.00,,,0.01,VWS V14.01,2013-01-30 02:55:00,
2013-01-29 22:01:00,28.7,26.4,30.22,East,101,0.0,1.5,91,0.01,,,0.02,VWS V14.01,2013-01-30 03:01:00,
2013-01-29 22:10:00,28.8,26.5,30.21,East,101,0.0,0.0,91,0.01,,,0.02,VWS V14.01,2013-01-30 03:10:00,
2013-01-29 22:16:00,29.0,26.7,30.21,East,90,1.5,3.0,91,0.01,,,0.02,VWS V14.01,2013-01-30 03:16:00,
2013-01-29 22:25:00,29.0,26.7,30.19,East,90,1.5,3.0,91,0.01,,,0.02,VWS V14.01,2013-01-30 03:25:00,
2013-01-29 22:31:00,29.1,27.1,30.19,East,89,0.0,3.0,92,0.01,,,0.02,VWS V14.01,2013-01-30 03:31:00,
2013-01-29 22:41:00,29.3,27.3,30.19,East,90,3.0,4.5,92,0.01,,,0.02,VWS V14.01,2013-01-30 03:41:00,
2013-01-29 22:50:00,29.4,27.4,30.18,East,89,0.0,4.5,92,0.01,,,0.02,VWS V14.01,2013-01-30 03:50:00,
2013-01-29 22:56:00,29.6,27.6,30.18,East,89,0.0,4.5,92,0.02,,,0.03,VWS V14.01,2013-01-30 03:56:00,
2013-01-29 23:05:00,29.7,27.7,30.18,East,89,0.0,4.5,92,0.01,,,0.03,VWS V14.01,2013-01-30 04:05:00,
2013-01-29 23:11:00,29.6,27.6,30.18,East,89,0.0,1.5,92,0.01,,,0.03,VWS V14.01,2013-01-30 04:11:00,
2013-01-29 23:20:00,29.4,27.4,30.18,East,89,0.0,1.5,92,0.01,,,0.03,VWS V14.01,2013-01-30 04:20:00,
2013-01-29 23:26:00,29.4,27.4,30.18,East,89,0.0,1.5,92,0.01,,,0.03,VWS V14.01,2013-01-30 04:26:00,
2013-01-29 23:35:00,29.4,27.4,30.18,East,89,0.0,1.5,92,0.01,,,0.03,VWS V14.01,2013-01-30 04:35:00,
2013-01-29 23:41:00,29.6,27.6,30.18,East,89,0.0,1.5,92,0.01,,,0.03,VWS V14.01,2013-01-30 04:41:00,
2013-01-29 23:50:00,29.6,27.6,30.18,East,89,0.0,0.0,92,0.01,,,0.03,VWS V14.01,2013-01-30 04:50:00,
2013-01-29 23:56:00,29.7,27.7,30.18,East,89,0.0,0.0,92,0.01,,,0.03,VWS V14.01,2013-01-30 04:56:00,